Baltimore, Maryland
Traffic Map
Current Weather Conditions
Baltimore, Maryland
Clear
Clear
13°
Feels Like: 13°
Wind Chill: 13° Ceiling: Unl
Heat Index: 13° Visibility: 10mi
Dew Point: 10° Wind: 5mph
Humidity: 80% Direction: 270° (W)
Pressure: 30.02in Gusts: 0mph
Raw Report DataKBWI 300854Z 27004KT 10SM CLR 13/10 A3002 RMK AO2 SLP164 T01330100 53000
Traffic Incident Summary
Active as of:
Severity:
Category:
InformationThere was an issue retrieving the traffic information for this location. Please try a different location or try again shortly.
Advertisements
Track Severe Weather on mobile